Time;durP1;ratioP1;P1;durP2;ratioP2;P2;SDS_P1;SDS_P2;PMS_P1;PMS_P2;Temp;Humidity;BMP_temperature;BMP_pressure;BME280_temperature;BME280_humidity;BME280_pressure;Samples;Min_cycle;Max_cycle;Signal;HPM_P1;HPM_P2
2022/11/10 00:01:04;;;;;;;279.30;258.23;;;11.10;41.00;;;;;;5053091;28;20413;-73
2022/11/10 00:03:30;;;;;;;551.03;515.67;;;11.10;42.30;;;;;;5051290;28;20998;-72
2022/11/10 00:05:55;;;;;;;363.77;341.27;;;11.20;40.80;;;;;;5052904;28;20412;-72
2022/11/10 00:08:21;;;;;;;204.03;188.83;;;11.10;40.30;;;;;;5052564;28;20211;-72
2022/11/10 00:11:00;;;;;;;582.93;543.40;;;11.00;40.40;;;;;;5052128;28;20193;-72
2022/11/10 00:13:32;;;;;;;578.70;542.53;;;10.90;42.00;;;;;;5051771;28;20201;-73
2022/11/10 00:18:47;;;;;;;452.20;423.87;;;10.90;41.50;;;;;;5051764;28;20775;-72
2022/11/10 00:21:14;;;;;;;710.83;664.00;;;10.90;42.10;;;;;;5053035;28;20413;-72
2022/11/10 00:23:40;;;;;;;665.53;619.83;;;11.00;41.90;;;;;;5051091;28;20245;-72
2022/11/10 00:26:11;;;;;;;367.13;344.53;;;11.00;41.50;;;;;;5052338;28;20843;-73
2022/11/10 00:28:36;;;;;;;455.67;426.33;;;11.00;40.80;;;;;;5053906;28;20402;-72
2022/11/10 00:31:05;;;;;;;721.67;673.67;;;11.00;40.80;;;;;;5053536;28;20521;-72
2022/11/10 00:33:34;;;;;;;527.57;492.60;;;10.90;41.30;;;;;;5051174;28;20344;-71
2022/11/10 00:36:00;;;;;;;196.87;181.17;;;10.90;41.30;;;;;;5052768;28;20451;-73
2022/11/10 00:38:25;;;;;;;409.83;382.90;;;11.00;40.40;;;;;;5051317;28;20417;-72
2022/11/10 00:40:51;;;;;;;705.73;659.83;;;11.00;39.80;;;;;;5053323;28;20224;-72
2022/11/10 00:43:16;;;;;;;297.00;276.97;;;10.90;39.90;;;;;;5052458;28;20233;-72
2022/11/10 00:45:43;;;;;;;485.90;454.83;;;10.80;40.40;;;;;;5051585;28;20180;-72
2022/11/10 00:48:08;;;;;;;691.57;644.83;;;10.70;41.10;;;;;;5055718;28;20188;-72
2022/11/10 00:50:34;;;;;;;657.63;614.60;;;10.70;41.90;;;;;;5056518;28;20420;-72
2022/11/10 00:52:59;;;;;;;677.97;633.10;;;10.70;41.90;;;;;;5057938;28;20183;-72
2022/11/10 00:55:25;;;;;;;580.17;542.80;;;10.70;41.90;;;;;;5055369;28;20217;-72
2022/11/10 00:57:51;;;;;;;626.43;584.07;;;10.70;41.90;;;;;;5056845;28;20171;-72
2022/11/10 01:00:16;;;;;;;301.53;279.57;;;10.60;41.80;;;;;;5054858;28;20182;-72
2022/11/10 01:02:42;;;;;;;574.33;538.60;;;10.60;41.80;;;;;;5056495;28;20232;-72
2022/11/10 01:05:08;;;;;;;574.43;537.60;;;10.60;42.30;;;;;;5055685;28;20270;-73
2022/11/10 01:07:33;;;;;;;549.53;517.03;;;10.60;43.00;;;;;;5057587;28;20219;-73
2022/11/10 01:09:59;;;;;;;423.20;397.13;;;10.70;42.70;;;;;;5054680;28;20448;-72
2022/11/10 01:12:28;;;;;;;301.53;280.60;;;10.60;42.20;;;;;;5054825;28;20626;-72
2022/11/10 01:14:55;;;;;;;588.33;550.77;;;10.60;43.40;;;;;;5054439;28;20211;-72
2022/11/10 01:17:21;;;;;;;433.50;405.17;;;10.60;42.20;;;;;;5054574;28;20576;-73
2022/11/10 01:19:46;;;;;;;532.40;498.93;;;10.50;42.30;;;;;;5055743;28;20962;-73
2022/11/10 01:22:12;;;;;;;319.53;299.90;;;10.40;42.50;;;;;;5058651;28;20183;-73
2022/11/10 01:24:38;;;;;;;560.93;527.27;;;10.40;43.30;;;;;;5057123;28;20263;-73
2022/11/10 01:27:03;;;;;;;370.17;345.30;;;10.40;43.20;;;;;;5055787;28;20461;-73
2022/11/10 01:29:29;;;;;;;347.00;324.00;;;10.20;43.30;;;;;;5055998;28;20249;-73
2022/11/10 01:31:54;;;;;;;548.37;513.60;;;10.20;43.20;;;;;;5056006;28;20209;-72
2022/11/10 01:34:20;;;;;;;222.23;205.97;;;10.10;43.40;;;;;;5054070;28;20275;-73
2022/11/10 01:36:46;;;;;;;307.47;285.77;;;10.10;44.40;;;;;;5052765;28;20598;-73
2022/11/10 01:39:11;;;;;;;412.07;388.10;;;10.00;44.00;;;;;;5054607;28;20170;-74
2022/11/10 01:41:37;;;;;;;624.40;584.00;;;9.90;44.50;;;;;;5054333;28;20197;-73
2022/11/10 01:44:35;;;;;;;516.20;484.13;;;9.80;45.10;;;;;;5056522;28;20605;-73
2022/11/10 01:47:00;;;;;;;411.37;383.90;;;9.70;45.10;;;;;;5020609;28;20541;-72
2022/11/10 01:49:31;;;;;;;409.97;383.40;;;9.80;45.10;;;;;;5054773;28;20494;-73
2022/11/10 01:52:01;;;;;;;511.60;480.33;;;9.70;45.40;;;;;;5053632;28;20178;-73
2022/11/10 01:54:32;;;;;;;480.17;449.50;;;9.60;45.80;;;;;;5053767;28;20457;-73
2022/11/10 01:57:02;;;;;;;390.27;364.77;;;9.70;47.80;;;;;;5056029;28;20411;-73
2022/11/10 01:59:34;;;;;;;389.07;362.07;;;9.70;48.50;;;;;;5052723;28;20493;-72
2022/11/10 02:02:11;;;;;;;504.73;476.93;;;9.80;49.00;;;;;;5053303;28;20405;-73
2022/11/10 02:04:40;;;;;;;349.17;327.70;;;9.80;47.50;;;;;;5054593;28;21019;-73
2022/11/10 02:07:06;;;;;;;531.57;501.03;;;9.80;48.30;;;;;;5055859;28;20789;-73
2022/11/10 02:09:32;;;;;;;470.53;443.20;;;9.90;48.20;;;;;;5053518;28;20416;-73
2022/11/10 02:11:58;;;;;;;153.23;141.13;;;9.90;48.50;;;;;;5053305;28;20409;-73
2022/11/10 02:14:23;;;;;;;501.17;473.80;;;10.00;47.20;;;;;;5053533;28;20196;-72
2022/11/10 02:16:49;;;;;;;356.13;333.17;;;10.00;45.90;;;;;;5054151;28;20188;-72
2022/11/10 02:19:19;;;;;;;448.97;422.73;;;10.00;46.40;;;;;;5053368;28;20477;-71
2022/11/10 02:21:44;;;;;;;329.00;306.97;;;10.00;46.40;;;;;;5053227;28;20657;-72
2022/11/10 02:24:10;;;;;;;253.80;236.47;;;10.00;46.70;;;;;;5054309;28;20459;-72
2022/11/10 02:26:41;;;;;;;352.50;330.93;;;10.10;46.20;;;;;;5054681;28;20584;-71
2022/11/10 02:29:06;;;;;;;473.10;443.30;;;10.10;45.60;;;;;;5054459;28;20182;-71
2022/11/10 02:31:32;;;;;;;662.50;621.77;;;10.20;45.30;;;;;;5055428;28;20421;-72
2022/11/10 02:33:57;;;;;;;455.17;426.90;;;10.20;45.60;;;;;;5053018;28;20202;-72
2022/11/10 02:36:23;;;;;;;626.67;589.67;;;10.30;46.00;;;;;;5055477;28;20512;-72
2022/11/10 02:38:48;;;;;;;677.53;637.60;;;10.30;45.10;;;;;;5053505;28;20181;-71
2022/11/10 02:41:14;;;;;;;589.03;554.63;;;10.30;44.80;;;;;;5054819;28;20182;-72
2022/11/10 02:43:40;;;;;;;603.30;567.03;;;10.30;45.30;;;;;;5054440;28;20190;-71
2022/11/10 02:46:05;;;;;;;701.27;657.50;;;10.40;45.00;;;;;;5054496;28;20183;-72
2022/11/10 02:48:31;;;;;;;440.50;413.70;;;10.40;44.80;;;;;;5053232;28;20185;-71
2022/11/10 02:50:56;;;;;;;600.93;564.07;;;10.30;43.80;;;;;;5054352;28;20170;-72
2022/11/10 02:53:22;;;;;;;641.40;600.07;;;10.20;43.70;;;;;;5053468;28;20700;-71
2022/11/10 02:55:47;;;;;;;654.47;613.17;;;10.20;44.00;;;;;;5053317;28;20796;-71
2022/11/10 02:58:13;;;;;;;526.33;495.07;;;10.10;43.30;;;;;;5051537;28;20178;-71
2022/11/10 03:00:39;;;;;;;510.00;476.13;;;10.10;44.10;;;;;;5052976;28;20204;-71
2022/11/10 03:03:04;;;;;;;243.83;227.03;;;10.10;44.00;;;;;;5053246;28;20182;-71
2022/11/10 03:05:31;;;;;;;289.73;270.40;;;10.00;44.40;;;;;;5054053;28;20178;-71
2022/11/10 03:08:01;;;;;;;397.20;372.23;;;10.00;44.60;;;;;;5053567;28;20417;-71
2022/11/10 03:10:28;;;;;;;538.37;505.97;;;9.90;45.90;;;;;;5054575;28;20885;-71
2022/11/10 03:12:55;;;;;;;343.67;322.27;;;9.80;47.20;;;;;;5051732;28;20429;-72
2022/11/10 03:15:22;;;;;;;577.40;542.40;;;9.80;47.20;;;;;;5052611;28;20468;-72
2022/11/10 03:17:48;;;;;;;558.30;523.57;;;9.80;46.50;;;;;;5053438;28;20520;-72
2022/11/10 03:20:14;;;;;;;684.40;640.33;;;9.70;47.10;;;;;;5055501;28;20850;-72
2022/11/10 03:22:40;;;;;;;562.60;529.03;;;9.70;47.00;;;;;;5051996;28;20178;-72
2022/11/10 03:25:06;;;;;;;573.40;539.53;;;9.70;47.50;;;;;;5053484;28;20449;-72
2022/11/10 03:27:31;;;;;;;641.07;602.80;;;9.70;47.10;;;;;;5055273;28;20209;-72
2022/11/10 03:29:57;;;;;;;685.67;644.37;;;9.80;47.20;;;;;;5054954;28;20425;-72
2022/11/10 03:32:23;;;;;;;486.87;457.77;;;9.80;47.20;;;;;;5053944;28;20183;-71
2022/11/10 03:34:48;;;;;;;606.37;570.87;;;9.80;47.20;;;;;;5055858;28;20776;-72
2022/11/10 03:37:17;;;;;;;308.53;288.27;;;9.90;46.80;;;;;;5054145;28;20220;-71
2022/11/10 03:39:42;;;;;;;628.53;588.93;;;9.80;46.60;;;;;;5055313;28;20245;-71
2022/11/10 03:42:08;;;;;;;570.43;535.27;;;9.80;45.70;;;;;;5052651;28;20452;-72
2022/11/10 03:44:33;;;;;;;280.50;259.73;;;9.70;45.40;;;;;;5054469;28;20193;-72
2022/11/10 03:47:01;;;;;;;527.43;495.33;;;9.70;45.30;;;;;;5053421;28;20174;-72
2022/11/10 03:49:27;;;;;;;471.17;440.83;;;9.60;44.80;;;;;;5053793;28;20228;-72
2022/11/10 03:51:53;;;;;;;273.80;255.60;;;9.60;45.50;;;;;;5053757;28;20819;-72
2022/11/10 03:54:18;;;;;;;296.27;276.40;;;9.60;46.50;;;;;;5057207;28;20201;-71
2022/11/10 03:56:44;;;;;;;238.77;221.63;;;9.50;45.90;;;;;;5054751;28;20174;-71
2022/11/10 03:59:09;;;;;;;346.53;323.13;;;9.50;46.90;;;;;;5053792;28;20186;-71
2022/11/10 04:01:35;;;;;;;504.23;476.13;;;9.40;46.80;;;;;;5052657;28;20178;-71
2022/11/10 04:04:00;;;;;;;461.50;435.37;;;9.40;46.60;;;;;;5053692;28;20204;-72
2022/11/10 04:09:10;;;;;;;438.10;411.50;;;9.20;46.30;;;;;;5053973;28;20674;-71
2022/11/10 04:17:04;;;;;;;450.10;423.97;;;9.00;46.30;;;;;;5052651;28;20758;-72
2022/11/10 04:19:30;;;;;;;435.17;409.10;;;9.00;46.50;;;;;;5054456;28;20789;-72
2022/11/10 04:21:55;;;;;;;395.57;372.13;;;9.00;46.20;;;;;;5053938;28;20539;-72
2022/11/10 04:24:21;;;;;;;420.50;397.27;;;8.90;46.40;;;;;;5056424;28;20293;-72
2022/11/10 04:26:48;;;;;;;260.23;243.33;;;8.90;46.50;;;;;;5057321;28;20178;-72
2022/11/10 04:29:16;;;;;;;331.90;310.77;;;8.90;47.80;;;;;;5056567;28;20646;-72
2022/11/10 04:31:42;;;;;;;404.13;379.43;;;8.80;48.10;;;;;;5058061;28;20412;-72
2022/11/10 04:34:12;;;;;;;233.87;217.83;;;8.80;47.90;;;;;;5057736;28;20799;-72
2022/11/10 04:36:40;;;;;;;318.67;298.87;;;8.80;48.80;;;;;;5058852;28;20255;-72
2022/11/10 04:39:06;;;;;;;176.30;162.60;;;8.70;48.10;;;;;;5060956;28;20473;-72
2022/11/10 04:41:32;;;;;;;538.60;506.10;;;8.70;47.70;;;;;;5059790;28;20405;-71
2022/11/10 04:43:59;;;;;;;617.87;578.50;;;8.60;46.80;;;;;;5060641;28;20434;-72
2022/11/10 04:46:26;;;;;;;463.07;435.57;;;8.60;47.00;;;;;;5057573;28;20439;-72
2022/11/10 04:48:53;;;;;;;330.43;308.87;;;8.60;46.60;;;;;;5058958;28;20496;-71
2022/11/10 04:51:21;;;;;;;595.47;560.37;;;8.50;47.90;;;;;;5057768;28;20412;-71
2022/11/10 04:53:47;;;;;;;518.80;488.13;;;8.40;47.40;;;;;;5058882;28;20452;-72
2022/11/10 04:56:23;;;;;;;283.17;261.57;;;8.30;47.30;;;;;;5057748;28;20545;-72
2022/11/10 04:58:49;;;;;;;238.67;222.77;;;8.30;48.30;;;;;;5058652;28;20248;-72
2022/11/10 05:01:18;;;;;;;240.93;223.87;;;8.30;48.40;;;;;;5056191;28;20412;-72
2022/11/10 05:03:44;;;;;;;431.33;404.90;;;8.30;48.80;;;;;;5055093;28;20851;-72
2022/11/10 05:06:10;;;;;;;546.10;512.33;;;8.20;48.10;;;;;;5055928;28;20443;-72
2022/11/10 05:08:37;;;;;;;217.00;202.10;;;8.10;48.30;;;;;;5055143;28;20464;-72
2022/11/10 05:11:03;;;;;;;364.20;341.93;;;8.10;49.00;;;;;;5056228;28;20718;-72
2022/11/10 05:13:29;;;;;;;485.20;457.03;;;8.10;48.00;;;;;;5054710;28;20459;-72
2022/11/10 05:15:55;;;;;;;303.43;284.67;;;8.00;48.20;;;;;;5055138;28;20229;-72
2022/11/10 05:18:20;;;;;;;270.30;252.90;;;8.00;48.90;;;;;;5056126;28;20769;-72
2022/11/10 05:20:46;;;;;;;440.70;415.50;;;8.00;48.20;;;;;;5054708;28;20514;-72
2022/11/10 05:25:56;;;;;;;420.90;395.87;;;8.00;48.70;;;;;;5060364;28;20184;-73
2022/11/10 05:28:22;;;;;;;487.10;457.57;;;7.90;48.80;;;;;;5061172;28;20415;-72
2022/11/10 05:30:47;;;;;;;384.00;359.97;;;7.90;48.20;;;;;;5061880;28;20173;-73
2022/11/10 05:33:13;;;;;;;443.57;416.80;;;7.90;48.00;;;;;;5062091;28;20430;-73
2022/11/10 05:35:39;;;;;;;409.10;384.67;;;7.70;49.30;;;;;;5058903;28;20575;-71
2022/11/10 05:38:05;;;;;;;403.37;377.67;;;7.70;48.50;;;;;;5060893;28;20710;-73
2022/11/10 05:40:32;;;;;;;309.60;289.83;;;7.60;48.70;;;;;;5061540;28;20415;-73
2022/11/10 05:42:57;;;;;;;430.60;406.20;;;7.60;49.50;;;;;;5061295;28;20418;-72
2022/11/10 05:45:25;;;;;;;407.20;383.10;;;7.60;49.50;;;;;;5060671;28;20915;-72
2022/11/10 05:47:51;;;;;;;487.10;457.10;;;7.50;50.20;;;;;;5062267;28;20203;-73
2022/11/10 05:50:18;;;;;;;414.10;389.30;;;7.50;49.70;;;;;;5062862;28;20415;-73
2022/11/10 05:52:46;;;;;;;395.77;371.73;;;7.50;50.00;;;;;;5059729;28;20201;-73
2022/11/10 05:55:13;;;;;;;305.67;285.47;;;7.50;50.00;;;;;;5060782;28;20466;-73
2022/11/10 05:57:42;;;;;;;230.13;213.63;;;7.40;50.20;;;;;;5060450;28;20410;-73
2022/11/10 06:00:09;;;;;;;554.77;521.23;;;7.40;49.60;;;;;;5059659;28;20429;-73
2022/11/10 06:02:34;;;;;;;400.57;375.97;;;7.40;50.10;;;;;;5058044;28;20450;-74
2022/11/10 06:05:00;;;;;;;202.83;187.67;;;7.30;50.00;;;;;;5060931;28;20441;-73
2022/11/10 06:07:26;;;;;;;487.03;458.90;;;7.40;50.50;;;;;;5060097;28;20662;-73
2022/11/10 06:09:51;;;;;;;478.90;453.13;;;7.40;48.90;;;;;;5059903;28;20259;-72
2022/11/10 06:12:17;;;;;;;441.10;415.33;;;7.30;49.00;;;;;;5061116;28;20195;-73
2022/11/10 06:14:42;;;;;;;334.97;313.17;;;7.20;49.20;;;;;;5061610;28;20224;-72
2022/11/10 06:17:08;;;;;;;418.83;393.30;;;7.20;49.50;;;;;;5061632;28;20179;-73
2022/11/10 06:19:33;;;;;;;379.83;355.17;;;7.10;49.30;;;;;;5060607;28;20176;-71
2022/11/10 06:21:59;;;;;;;372.40;349.30;;;7.10;48.70;;;;;;5061245;28;20177;-73
2022/11/10 06:24:25;;;;;;;382.53;357.57;;;7.00;49.10;;;;;;5061103;28;20210;-73
2022/11/10 06:26:55;;;;;;;209.77;194.20;;;7.00;49.80;;;;;;5060624;28;20187;-73
2022/11/10 06:29:21;;;;;;;398.30;376.00;;;7.00;49.90;;;;;;5060416;28;20233;-73
2022/11/10 06:31:46;;;;;;;381.40;358.07;;;7.00;49.80;;;;;;5060454;28;20504;-73
2022/11/10 06:34:12;;;;;;;289.97;271.53;;;7.10;49.30;;;;;;5061142;28;20742;-72
2022/11/10 06:36:39;;;;;;;442.93;416.93;;;7.00;49.80;;;;;;5061078;28;20282;-74
2022/11/10 06:39:05;;;;;;;465.03;440.50;;;7.00;49.80;;;;;;5060572;28;20174;-73
2022/11/10 06:41:32;;;;;;;228.47;212.67;;;7.00;49.80;;;;;;5060117;28;20427;-72
2022/11/10 06:43:58;;;;;;;563.73;531.67;;;7.10;50.40;;;;;;5060539;28;20238;-74
2022/11/10 06:46:23;;;;;;;387.43;364.50;;;7.10;50.40;;;;;;5061722;28;20419;-74
2022/11/10 06:48:49;;;;;;;389.27;366.60;;;7.10;49.90;;;;;;5060028;28;20171;-74
2022/11/10 06:51:14;;;;;;;422.80;395.27;;;7.20;50.00;;;;;;5060790;28;20192;-73
2022/11/10 06:53:41;;;;;;;431.83;406.40;;;7.20;49.20;;;;;;5059562;28;20211;-73
2022/11/10 06:56:06;;;;;;;328.57;308.40;;;7.20;50.00;;;;;;5060529;28;20219;-73
2022/11/10 06:58:32;;;;;;;236.83;220.67;;;7.20;50.00;;;;;;5059165;28;20454;-74
2022/11/10 07:01:01;;;;;;;360.50;338.73;;;7.30;50.10;;;;;;5058202;28;20422;-73
2022/11/10 07:03:26;;;;;;;231.27;215.07;;;7.40;50.90;;;;;;5060430;28;20207;-73
2022/11/10 07:05:52;;;;;;;341.63;320.20;;;7.40;51.30;;;;;;5059348;28;20416;-73
2022/11/10 07:08:18;;;;;;;520.07;489.23;;;7.50;50.30;;;;;;5060896;28;20190;-74
2022/11/10 07:10:52;;;;;;;627.23;588.23;;;7.50;50.70;;;;;;5060170;28;20523;-73
2022/11/10 07:13:18;;;;;;;558.60;525.37;;;7.70;51.20;;;;;;5061728;28;20199;-73
2022/11/10 07:15:44;;;;;;;588.43;552.67;;;7.70;50.40;;;;;;5061601;28;20469;-73
2022/11/10 07:18:10;;;;;;;384.00;360.87;;;7.80;51.70;;;;;;5060499;28;20443;-73
2022/11/10 07:20:35;;;;;;;551.03;518.10;;;7.90;50.60;;;;;;5061048;28;20189;-71
2022/11/10 07:23:03;;;;;;;496.77;464.93;;;8.00;50.60;;;;;;5060079;28;20758;-72
2022/11/10 07:25:30;;;;;;;531.70;500.17;;;8.00;50.60;;;;;;5060240;28;20552;-72
2022/11/10 07:27:57;;;;;;;149.60;137.77;;;8.00;50.60;;;;;;5061049;28;20426;-72
2022/11/10 07:30:23;;;;;;;215.47;200.17;;;8.10;49.10;;;;;;5059189;28;20493;-72
2022/11/10 07:33:21;;;;;;;234.97;219.13;;;8.00;48.00;;;;;;5059200;28;20945;-73
2022/11/10 07:35:56;;;;;;;275.67;258.60;;;8.00;47.80;;;;;;5059064;28;20212;-72
2022/11/10 07:38:22;;;;;;;281.67;262.27;;;8.00;48.00;;;;;;5060665;28;20433;-71
2022/11/10 07:40:54;;;;;;;373.90;350.87;;;8.00;48.90;;;;;;5059405;28;20441;-73
2022/11/10 07:43:21;;;;;;;628.10;588.47;;;8.10;48.80;;;;;;5058683;28;20446;-72
2022/11/10 07:45:48;;;;;;;616.73;577.60;;;8.20;48.60;;;;;;5058820;28;20426;-72
2022/11/10 07:48:14;;;;;;;317.93;297.53;;;8.20;49.10;;;;;;5060029;28;20432;-72
2022/11/10 07:50:40;;;;;;;395.53;371.03;;;8.30;49.20;;;;;;5059680;28;20419;-72
2022/11/10 07:53:08;;;;;;;506.40;473.93;;;8.30;49.50;;;;;;5060871;28;20182;-72
2022/11/10 07:55:36;;;;;;;414.10;389.53;;;8.40;49.50;;;;;;5060416;28;20202;-72
2022/11/10 07:58:01;;;;;;;528.37;496.90;;;8.30;48.60;;;;;;5063555;28;20431;-73
2022/11/10 08:00:28;;;;;;;378.47;354.60;;;8.40;48.80;;;;;;5063959;28;20412;-72
2022/11/10 08:02:53;;;;;;;609.97;572.17;;;8.40;49.60;;;;;;5063729;28;20324;-72
2022/11/10 08:05:19;;;;;;;537.67;504.23;;;8.50;48.80;;;;;;5062890;28;20953;-72
2022/11/10 08:07:44;;;;;;;265.20;247.47;;;8.50;48.80;;;;;;5065122;28;20230;-74
2022/11/10 08:10:10;;;;;;;433.43;406.53;;;8.60;49.30;;;;;;5064095;28;20245;-76
2022/11/10 08:12:35;;;;;;;420.83;395.37;;;8.60;48.60;;;;;;5063939;28;20182;-73
2022/11/10 08:15:02;;;;;;;343.80;323.70;;;8.70;49.20;;;;;;5063351;28;20213;-74
2022/11/10 08:17:27;;;;;;;372.57;349.33;;;8.70;48.40;;;;;;5064643;28;20188;-73
2022/11/10 08:19:53;;;;;;;554.27;519.87;;;8.80;48.30;;;;;;5064365;28;20415;-72
2022/11/10 08:22:18;;;;;;;424.33;397.63;;;8.80;47.10;;;;;;5063056;28;20185;-74
2022/11/10 08:24:44;;;;;;;465.83;435.77;;;8.80;46.90;;;;;;5063966;28;20322;-73
2022/11/10 08:27:09;;;;;;;544.10;512.13;;;8.80;48.50;;;;;;5064431;28;20670;-73
2022/11/10 08:29:35;;;;;;;276.10;258.17;;;8.80;47.70;;;;;;5065029;28;20175;-71
2022/11/10 08:32:00;;;;;;;367.47;345.03;;;8.90;48.30;;;;;;5064110;28;20178;-73
2022/11/10 08:34:26;;;;;;;390.60;366.50;;;9.00;48.50;;;;;;5063426;28;20558;-73
2022/11/10 08:36:52;;;;;;;372.50;349.57;;;9.00;47.60;;;;;;5064301;28;20178;-73
2022/11/10 08:39:18;;;;;;;641.43;602.37;;;9.00;47.40;;;;;;5063909;28;20413;-74
2022/11/10 08:41:44;;;;;;;506.10;475.57;;;9.00;48.10;;;;;;5065726;28;20506;-69
2022/11/10 08:44:09;;;;;;;551.80;518.47;;;9.00;47.40;;;;;;5063234;28;20232;-74
2022/11/10 08:46:35;;;;;;;315.23;294.90;;;9.10;48.30;;;;;;5065342;28;20625;-75
2022/11/10 08:49:00;;;;;;;577.03;545.63;;;9.20;47.60;;;;;;5064794;28;20261;-73
2022/11/10 08:51:26;;;;;;;484.10;455.57;;;9.30;46.60;;;;;;5064959;28;20189;-72
2022/11/10 08:53:52;;;;;;;595.63;561.33;;;9.40;46.80;;;;;;5063301;28;20217;-70
2022/11/10 08:56:17;;;;;;;475.07;448.30;;;9.50;46.90;;;;;;5064001;28;20224;-73
2022/11/10 08:58:43;;;;;;;551.17;515.97;;;9.60;46.30;;;;;;5064228;28;20181;-73
2022/11/10 09:01:10;;;;;;;601.40;564.33;;;9.60;45.60;;;;;;5062097;28;20187;-72
2022/11/10 09:03:36;;;;;;;534.53;505.33;;;9.70;45.80;;;;;;5060767;28;20191;-73
2022/11/10 09:06:02;;;;;;;399.70;373.30;;;9.80;45.20;;;;;;5059724;28;20417;-73
2022/11/10 09:08:27;;;;;;;433.57;405.43;;;9.90;45.30;;;;;;5058544;28;20432;-72
2022/11/10 09:10:53;;;;;;;480.80;450.80;;;10.00;42.80;;;;;;5056606;28;20550;-70
2022/11/10 09:13:22;;;;;;;278.53;259.53;;;10.10;41.40;;;;;;5059660;28;20224;-72
2022/11/10 09:15:48;;;;;;;392.83;367.60;;;10.20;42.00;;;;;;5062779;28;20561;-73
2022/11/10 09:18:14;;;;;;;507.97;474.33;;;10.30;41.60;;;;;;5062219;28;20417;-72
2022/11/10 09:20:40;;;;;;;381.10;354.03;;;10.40;41.70;;;;;;5060984;28;20550;-73
2022/11/10 09:23:14;;;;;;;333.67;309.30;;;10.50;40.30;;;;;;5062334;28;20413;-76
2022/11/10 09:25:41;;;;;;;735.50;686.30;;;10.50;40.80;;;;;;5061515;28;20495;-73
2022/11/10 09:28:14;;;;;;;676.17;629.77;;;10.60;38.50;;;;;;5061793;28;20836;-72
2022/11/10 09:30:40;;;;;;;759.60;707.97;;;10.70;37.60;;;;;;5062000;28;21001;-72
2022/11/10 09:33:06;;;;;;;348.20;326.10;;;10.70;38.30;;;;;;5059471;28;20421;-73
2022/11/10 09:35:32;;;;;;;438.63;407.80;;;10.70;37.20;;;;;;5060430;28;20954;-73
2022/11/10 09:37:57;;;;;;;475.60;443.60;;;10.70;37.90;;;;;;5060591;28;20179;-73
2022/11/10 09:40:47;;;;;;;589.30;548.60;;;10.60;38.70;;;;;;5060640;28;20198;-71
2022/11/10 09:43:20;;;;;;;431.10;400.83;;;10.70;38.80;;;;;;5059984;28;20240;-74
2022/11/10 09:45:49;;;;;;;625.73;582.30;;;10.80;38.30;;;;;;5059670;28;20618;-73
2022/11/10 09:48:36;;;;;;;419.80;393.03;;;10.90;36.40;;;;;;5059780;28;20424;-72
2022/11/10 09:51:27;;;;;;;340.67;317.40;;;11.00;34.70;;;;;;5058866;28;20421;-73
2022/11/10 09:54:16;;;;;;;632.27;586.87;;;11.00;33.10;;;;;;5057933;28;20452;-73
2022/11/10 09:56:41;;;;;;;670.80;623.33;;;10.90;32.90;;;;;;5059336;28;20557;-74
2022/11/10 09:59:17;;;;;;;417.40;388.53;;;11.00;32.70;;;;;;5059607;28;20464;-73
2022/11/10 10:02:22;;;;;;;388.73;360.67;;;11.00;31.80;;;;;;5058863;28;20210;-68
2022/11/10 10:05:22;;;;;;;638.07;592.53;;;11.10;31.90;;;;;;5058014;28;20495;-73
2022/11/10 10:08:04;;;;;;;535.10;499.80;;;11.00;31.80;;;;;;5058570;28;20415;-72
2022/11/10 10:10:43;;;;;;;757.53;703.40;;;11.00;30.90;;;;;;5059368;28;20418;-72
2022/11/10 10:13:30;;;;;;;232.40;214.10;;;11.20;32.00;;;;;;5058458;28;20422;-74
2022/11/10 10:16:26;;;;;;;519.57;483.47;;;11.30;28.40;;;;;;5057340;28;20461;-74
2022/11/10 10:19:16;;;;;;;492.73;455.73;;;11.40;27.20;;;;;;5056823;28;20429;-74
2022/11/10 10:21:57;;;;;;;679.43;630.03;;;11.50;25.20;;;;;;5058449;28;20405;-73
2022/11/10 10:24:26;;;;;;;511.13;475.03;;;11.60;26.10;;;;;;5057610;28;20911;-72
2022/11/10 10:26:59;;;;;;;543.40;503.27;;;11.80;24.30;;;;;;5054806;28;20785;-72
2022/11/10 10:29:34;;;;;;;308.97;285.97;;;11.90;23.40;;;;;;5057710;28;20413;-73
2022/11/10 10:32:00;;;;;;;395.33;365.37;;;12.10;22.50;;;;;;5056957;28;20452;-74
2022/11/10 10:34:31;;;;;;;514.27;478.80;;;12.20;22.10;;;;;;5057277;28;20450;-74
2022/11/10 10:36:56;;;;;;;470.80;437.27;;;12.30;23.80;;;;;;5057539;28;20183;-72
2022/11/10 10:39:35;;;;;;;579.27;536.83;;;12.40;22.30;;;;;;5057444;28;20409;-72
2022/11/10 10:42:01;;;;;;;532.30;496.43;;;12.50;20.10;;;;;;5053285;28;20213;-72
2022/11/10 10:44:26;;;;;;;485.13;450.10;;;12.60;20.90;;;;;;5055867;28;20436;-72
2022/11/10 10:46:58;;;;;;;309.43;284.77;;;12.70;21.30;;;;;;5051664;28;20177;-72
2022/11/10 10:49:26;;;;;;;521.10;483.97;;;12.90;20.70;;;;;;5054460;28;20535;-73
2022/11/10 10:52:12;;;;;;;167.27;152.70;;;12.90;19.30;;;;;;5054725;28;20936;-72
2022/11/10 10:54:38;;;;;;;327.67;304.80;;;12.90;18.70;;;;;;5054803;28;20465;-72
2022/11/10 10:57:39;;;;;;;459.20;428.03;;;12.80;18.50;;;;;;5053573;28;20435;-72
2022/11/10 11:00:18;;;;;;;580.10;538.07;;;12.80;18.40;;;;;;4993154;28;20509;-72
2022/11/10 11:03:02;;;;;;;482.80;448.17;;;12.90;17.90;;;;;;5046691;28;20419;-73
2022/11/10 11:05:28;;;;;;;214.90;196.53;;;12.90;18.60;;;;;;5053982;28;20400;-72
2022/11/10 11:08:01;;;;;;;464.90;431.50;;;13.00;18.70;;;;;;5051587;28;20761;-72
2022/11/10 11:10:33;;;;;;;407.97;377.63;;;13.10;17.60;;;;;;5054132;28;20312;-72
2022/11/10 11:13:26;;;;;;;576.87;534.93;;;13.20;17.40;;;;;;5053527;28;20424;-72
2022/11/10 11:16:07;;;;;;;451.67;417.17;;;13.30;18.60;;;;;;5053987;28;20453;-71
2022/11/10 11:18:34;;;;;;;313.50;291.83;;;13.30;17.50;;;;;;5054238;28;20938;-72
2022/11/10 11:21:18;;;;;;;561.30;519.90;;;13.40;17.10;;;;;;5052264;28;20440;-72
2022/11/10 11:23:55;;;;;;;356.73;328.80;;;13.40;17.20;;;;;;5052636;28;20456;-71
2022/11/10 11:26:36;;;;;;;442.87;410.40;;;13.50;16.80;;;;;;5053631;28;20781;-71
2022/11/10 11:29:21;;;;;;;548.90;508.00;;;13.60;17.30;;;;;;5053734;28;20451;-74
2022/11/10 11:32:28;;;;;;;708.33;655.23;;;13.60;14.90;;;;;;5053582;28;20739;-73
2022/11/10 11:35:15;;;;;;;541.40;504.83;;;13.50;14.20;;;;;;5044914;28;20472;-74
2022/11/10 11:37:55;;;;;;;616.13;569.47;;;13.50;14.60;;;;;;5053390;28;20420;-71
2022/11/10 11:40:25;;;;;;;412.03;380.67;;;13.60;15.20;;;;;;5052034;28;20423;-72
2022/11/10 11:43:27;;;;;;;571.63;528.90;;;13.50;15.30;;;;;;5053351;28;20453;-72
2022/11/10 11:46:11;;;;;;;581.80;539.03;;;13.50;15.80;;;;;;5053542;28;20773;-72
2022/11/10 11:49:25;;;;;;;569.07;524.40;;;13.50;15.70;;;;;;5053313;28;20408;-72
2022/11/10 11:52:09;;;;;;;491.70;451.30;;;13.60;15.30;;;;;;5026086;28;20532;-73
2022/11/10 11:54:49;;;;;;;586.50;544.63;;;13.70;16.60;;;;;;5053009;28;20798;-73
2022/11/10 11:57:32;;;;;;;566.53;519.77;;;13.80;15.00;;;;;;5052921;28;20482;-72
2022/11/10 12:00:16;;;;;;;219.70;201.47;;;13.70;15.20;;;;;;5053462;28;20409;-71
2022/11/10 12:02:52;;;;;;;597.53;555.17;;;13.80;13.80;;;;;;5052993;28;20421;-72
2022/11/10 12:05:42;;;;;;;517.83;477.13;;;13.80;13.30;;;;;;5053094;28;20502;-72
2022/11/10 12:08:26;;;;;;;636.00;587.07;;;13.80;13.20;;;;;;5053461;28;20421;-71
2022/11/10 12:11:15;;;;;;;552.60;511.60;;;13.90;13.70;;;;;;5053172;28;20921;-72
2022/11/10 12:14:03;;;;;;;713.70;658.37;;;13.80;12.30;;;;;;5052997;28;20425;-72
2022/11/10 12:16:32;;;;;;;540.23;496.23;;;13.90;13.80;;;;;;5052850;28;20533;-73
2022/11/10 12:19:06;;;;;;;546.73;503.97;;;13.90;13.30;;;;;;5052628;28;20454;-72
2022/11/10 12:21:50;;;;;;;638.60;589.23;;;13.90;12.30;;;;;;5052120;28;20759;-72
2022/11/10 12:24:27;;;;;;;435.10;401.67;;;13.90;13.20;;;;;;5052164;28;20463;-72
2022/11/10 12:26:57;;;;;;;216.13;198.67;;;14.00;13.00;;;;;;5054238;28;20782;-71
2022/11/10 12:29:38;;;;;;;331.47;305.80;;;14.00;12.40;;;;;;5052175;28;20421;-72
2022/11/10 12:32:32;;;;;;;700.73;647.10;;;14.10;12.50;;;;;;5052283;28;20411;-73
2022/11/10 12:35:06;;;;;;;742.00;683.17;;;13.90;12.40;;;;;;5047699;28;20525;-72
2022/11/10 12:37:36;;;;;;;632.30;579.30;;;13.90;12.30;;;;;;5053562;28;20956;-73
2022/11/10 12:41:01;;;;;;;478.90;433.83;;;13.90;12.30;;;;;;5051930;28;20437;-71